Time;durP1;ratioP1;P1;durP2;ratioP2;P2;SDS_P1;SDS_P2;PMS_P1;PMS_P2;Temp;Humidity;BMP_temperature;BMP_pressure;BME280_temperature;BME280_humidity;BME280_pressure;Samples;Min_cycle;Max_cycle;Signal;HPM_P1;HPM_P2
2023/03/07 00:02:17;;;;;;;10.03;9.73;;;20.40;46.80;;;;;;4991322;28;20478;-64
2023/03/07 00:04:45;;;;;;;10.00;9.70;;;20.40;46.70;;;;;;4991621;28;20862;-64
2023/03/07 00:07:12;;;;;;;10.43;10.03;;;20.40;46.80;;;;;;4993438;28;20849;-64
2023/03/07 00:09:41;;;;;;;10.23;9.93;;;20.40;46.70;;;;;;4991417;28;20477;-64
2023/03/07 00:12:09;;;;;;;9.93;9.63;;;20.30;46.60;;;;;;4989703;28;20499;-64
2023/03/07 00:14:36;;;;;;;10.00;9.70;;;20.30;47.10;;;;;;4988309;28;20474;-64
2023/03/07 00:17:03;;;;;;;9.80;9.50;;;20.30;46.60;;;;;;4988629;28;20921;-64
2023/03/07 00:19:30;;;;;;;9.53;9.23;;;20.30;46.70;;;;;;4991021;28;20969;-64
2023/03/07 00:21:57;;;;;;;9.70;9.40;;;20.30;46.80;;;;;;4991799;28;20479;-64
2023/03/07 00:24:23;;;;;;;9.63;9.33;;;20.30;46.70;;;;;;4991528;28;20501;-64
2023/03/07 00:26:52;;;;;;;9.57;9.27;;;20.30;46.80;;;;;;4991908;28;20479;-64
2023/03/07 00:29:18;;;;;;;10.03;9.73;;;20.30;46.80;;;;;;5000789;28;20447;-64
2023/03/07 00:31:45;;;;;;;9.73;9.43;;;20.30;46.80;;;;;;4991659;28;20451;-64
2023/03/07 00:34:12;;;;;;;10.50;10.20;;;20.30;46.80;;;;;;4991230;28;20506;-64
2023/03/07 00:36:39;;;;;;;9.70;9.30;;;20.30;46.90;;;;;;4991560;28;21073;-64
2023/03/07 00:39:07;;;;;;;9.80;9.50;;;20.30;46.90;;;;;;4991724;28;20881;-64
2023/03/07 00:41:34;;;;;;;9.67;9.47;;;20.30;46.80;;;;;;4991598;28;20450;-64
2023/03/07 00:44:02;;;;;;;10.20;9.90;;;20.30;46.80;;;;;;4991054;28;20565;-64
2023/03/07 00:46:29;;;;;;;10.47;10.17;;;20.30;46.90;;;;;;4991521;28;20483;-64
2023/03/07 00:48:56;;;;;;;9.23;9.03;;;20.30;46.90;;;;;;4991509;28;20483;-64
2023/03/07 00:51:23;;;;;;;9.60;9.30;;;20.30;47.00;;;;;;4991360;28;20486;-64
2023/03/07 00:53:51;;;;;;;9.27;9.07;;;20.30;46.90;;;;;;4991078;28;20498;-64
2023/03/07 00:56:19;;;;;;;10.67;10.37;;;20.30;46.90;;;;;;4991368;28;20482;-64
2023/03/07 00:58:47;;;;;;;9.47;9.17;;;20.30;46.90;;;;;;4991274;28;20514;-64
2023/03/07 01:01:17;;;;;;;9.53;9.30;;;20.30;46.90;;;;;;4991164;28;20487;-64
2023/03/07 01:03:48;;;;;;;9.30;9.10;;;20.30;46.90;;;;;;4990845;28;20498;-64
2023/03/07 01:06:17;;;;;;;9.90;9.30;;;20.20;46.80;;;;;;4991358;28;20454;-64
2023/03/07 01:08:44;;;;;;;9.30;9.00;;;20.30;46.80;;;;;;4991227;28;20817;-65
2023/03/07 01:11:11;;;;;;;9.20;9.00;;;20.30;46.90;;;;;;4991111;28;20859;-64
2023/03/07 01:13:39;;;;;;;9.70;9.40;;;20.20;46.70;;;;;;4990779;28;20558;-64
2023/03/07 01:16:10;;;;;;;9.23;9.00;;;20.20;46.80;;;;;;4991269;28;20478;-64
2023/03/07 01:18:39;;;;;;;9.33;9.13;;;20.20;46.80;;;;;;4990948;28;20471;-64
2023/03/07 01:21:14;;;;;;;9.63;9.33;;;20.20;46.80;;;;;;4991035;28;20479;-64
2023/03/07 01:23:40;;;;;;;9.47;9.20;;;20.20;46.80;;;;;;4990524;28;20505;-64
2023/03/07 01:26:11;;;;;;;9.30;9.10;;;20.20;46.80;;;;;;4990959;28;20474;-64
2023/03/07 01:28:38;;;;;;;9.10;8.90;;;20.20;46.90;;;;;;4990941;28;20470;-64
2023/03/07 01:31:05;;;;;;;9.33;9.13;;;20.20;46.80;;;;;;4989909;28;20483;-64
2023/03/07 01:33:32;;;;;;;9.23;9.03;;;20.20;46.80;;;;;;4979493;28;20540;-64
2023/03/07 01:36:00;;;;;;;9.70;9.50;;;20.20;46.80;;;;;;4971500;28;20472;-64
2023/03/07 01:38:32;;;;;;;9.83;9.63;;;20.20;46.80;;;;;;4971439;28;21121;-64
2023/03/07 01:40:59;;;;;;;9.37;9.10;;;20.20;46.80;;;;;;4971483;28;20463;-64
2023/03/07 01:43:28;;;;;;;9.20;8.90;;;20.20;46.80;;;;;;4971045;28;20507;-64
2023/03/07 01:46:53;;;;;;;9.37;9.07;;;20.20;46.80;;;;;;4971304;28;20491;-64
2023/03/07 01:49:25;;;;;;;9.10;8.90;;;20.20;46.90;;;;;;5011133;28;20840;-64
2023/03/07 01:51:58;;;;;;;8.90;8.70;;;20.20;46.90;;;;;;4978687;28;20508;-64
2023/03/07 01:54:26;;;;;;;9.27;9.07;;;20.30;47.10;;;;;;4971181;28;20468;-64
2023/03/07 01:56:54;;;;;;;9.73;9.53;;;20.20;47.00;;;;;;4971221;28;20930;-63
2023/03/07 01:59:28;;;;;;;9.40;9.20;;;20.20;47.00;;;;;;4971234;28;20480;-64
2023/03/07 02:01:57;;;;;;;8.93;8.73;;;20.30;47.10;;;;;;4980951;28;20447;-64
2023/03/07 02:04:30;;;;;;;9.30;9.10;;;20.20;47.10;;;;;;4990093;28;20505;-64
2023/03/07 02:06:59;;;;;;;9.87;9.57;;;20.20;47.00;;;;;;4990346;28;21013;-64
2023/03/07 02:09:27;;;;;;;9.47;9.20;;;20.20;47.00;;;;;;4990355;28;20994;-64
2023/03/07 02:11:55;;;;;;;9.00;8.80;;;20.30;47.10;;;;;;4989780;28;20483;-64
2023/03/07 02:14:22;;;;;;;9.00;8.70;;;20.20;47.10;;;;;;4990239;28;20832;-64
2023/03/07 02:16:49;;;;;;;9.67;9.37;;;20.20;47.10;;;;;;4990222;28;20510;-64
2023/03/07 02:19:45;;;;;;;9.20;9.00;;;20.20;47.10;;;;;;4990161;28;20479;-64
2023/03/07 02:22:17;;;;;;;9.50;9.30;;;20.20;47.10;;;;;;4989672;28;20450;-64
2023/03/07 02:24:48;;;;;;;9.33;9.03;;;20.20;47.10;;;;;;4985380;28;20450;-64
2023/03/07 02:27:16;;;;;;;9.13;8.93;;;20.20;47.00;;;;;;4970703;28;20478;-63
2023/03/07 02:29:43;;;;;;;9.73;9.50;;;20.30;47.20;;;;;;4970619;28;20479;-63
2023/03/07 02:32:10;;;;;;;8.90;8.70;;;20.20;47.10;;;;;;4970300;28;20982;-64
2023/03/07 02:34:37;;;;;;;9.17;8.97;;;20.20;47.20;;;;;;4970551;28;20499;-64
2023/03/07 02:37:08;;;;;;;9.13;8.93;;;20.20;47.20;;;;;;4970417;28;20571;-64
2023/03/07 02:39:36;;;;;;;9.10;8.90;;;20.30;47.30;;;;;;4970716;28;20897;-64
2023/03/07 02:42:07;;;;;;;9.20;9.00;;;20.30;47.10;;;;;;4980898;28;20478;-64
2023/03/07 02:44:35;;;;;;;9.10;8.90;;;20.30;47.10;;;;;;5082013;22;20558;-64
2023/03/07 02:47:04;;;;;;;9.10;8.90;;;20.30;47.10;;;;;;5071594;28;20474;-64
2023/03/07 02:49:31;;;;;;;9.70;9.40;;;20.30;47.10;;;;;;5071693;28;20492;-64
2023/03/07 02:51:59;;;;;;;9.60;9.40;;;20.30;47.10;;;;;;5071409;28;20483;-64
2023/03/07 02:54:26;;;;;;;9.00;8.80;;;20.30;47.10;;;;;;5071645;28;20555;-64
2023/03/07 02:56:53;;;;;;;9.20;9.00;;;20.20;47.00;;;;;;5071640;28;20443;-65
2023/03/07 02:59:20;;;;;;;8.73;8.43;;;20.30;47.10;;;;;;5071702;28;20470;-64
2023/03/07 03:01:48;;;;;;;9.30;9.10;;;20.30;47.10;;;;;;5071145;28;20858;-65
2023/03/07 03:04:15;;;;;;;8.73;8.53;;;20.30;47.10;;;;;;5071502;28;20510;-64
2023/03/07 03:06:42;;;;;;;8.90;8.70;;;20.30;47.10;;;;;;5071579;28;20471;-64
2023/03/07 03:09:09;;;;;;;8.83;8.63;;;20.30;47.10;;;;;;5071605;28;20475;-64
2023/03/07 03:11:36;;;;;;;8.87;8.67;;;20.30;47.10;;;;;;5064548;28;20444;-64
2023/03/07 03:14:03;;;;;;;9.23;8.93;;;20.30;47.10;;;;;;5051376;28;20506;-64
2023/03/07 03:16:30;;;;;;;9.60;9.30;;;20.30;47.10;;;;;;5051435;28;20489;-63
2023/03/07 03:18:58;;;;;;;9.07;8.87;;;20.30;47.10;;;;;;5051304;28;20519;-64
2023/03/07 03:21:25;;;;;;;8.97;8.77;;;20.20;47.00;;;;;;5051292;28;20443;-64
2023/03/07 03:23:52;;;;;;;9.43;9.23;;;20.20;47.10;;;;;;5051311;28;20883;-64
2023/03/07 03:26:19;;;;;;;8.60;8.40;;;20.20;47.10;;;;;;5051429;28;20511;-64
2023/03/07 03:28:46;;;;;;;9.00;8.80;;;20.30;47.20;;;;;;5051398;28;20475;-63
2023/03/07 03:31:14;;;;;;;9.90;9.63;;;20.30;47.20;;;;;;5051843;28;20482;-63
2023/03/07 03:33:41;;;;;;;9.90;9.70;;;20.30;47.20;;;;;;5052448;28;20468;-63
2023/03/07 03:36:12;;;;;;;9.80;9.60;;;20.20;47.10;;;;;;5051889;28;20955;-63
2023/03/07 03:38:39;;;;;;;10.00;9.80;;;20.30;47.20;;;;;;5052028;28;20606;-63
2023/03/07 03:41:07;;;;;;;9.80;9.60;;;20.30;47.20;;;;;;5051700;28;20913;-63
2023/03/07 03:43:34;;;;;;;10.57;10.27;;;20.20;47.10;;;;;;5051846;28;20508;-64
2023/03/07 03:46:02;;;;;;;9.87;9.67;;;20.30;47.10;;;;;;5052029;28;20475;-64
2023/03/07 03:48:30;;;;;;;9.97;9.77;;;20.30;47.10;;;;;;5055115;28;20466;-64
2023/03/07 03:51:01;;;;;;;9.93;9.73;;;20.20;47.10;;;;;;5052262;28;20448;-64
2023/03/07 03:53:30;;;;;;;10.40;10.10;;;20.30;47.10;;;;;;5053627;28;20506;-64
2023/03/07 03:56:02;;;;;;;10.20;10.00;;;20.30;47.10;;;;;;5055613;28;20444;-63
2023/03/07 03:58:29;;;;;;;10.60;10.30;;;20.30;47.10;;;;;;5056154;28;20807;-64
2023/03/07 04:00:56;;;;;;;9.80;9.50;;;20.30;47.10;;;;;;5056082;28;20480;-64
2023/03/07 04:03:23;;;;;;;9.70;9.50;;;20.30;47.10;;;;;;5055834;28;20468;-64
2023/03/07 04:05:50;;;;;;;9.70;9.50;;;20.30;47.10;;;;;;5057159;28;20479;-64
2023/03/07 04:08:17;;;;;;;9.97;9.67;;;20.30;47.10;;;;;;5061884;28;20464;-63
2023/03/07 04:10:45;;;;;;;9.30;9.10;;;20.30;47.10;;;;;;5063789;28;20448;-64
2023/03/07 04:13:12;;;;;;;9.43;9.23;;;20.30;47.10;;;;;;5062969;28;20526;-64
2023/03/07 04:15:39;;;;;;;9.93;9.70;;;20.30;47.10;;;;;;5064561;28;20444;-63
2023/03/07 04:18:06;;;;;;;9.50;9.30;;;20.30;47.10;;;;;;5056805;28;20519;-64
2023/03/07 04:20:33;;;;;;;9.53;9.33;;;20.30;47.10;;;;;;5066308;28;20442;-63
2023/03/07 04:23:00;;;;;;;10.67;10.47;;;20.30;47.10;;;;;;5075357;28;20984;-63
2023/03/07 04:25:27;;;;;;;9.60;9.40;;;20.30;47.10;;;;;;5075301;28;20478;-64
2023/03/07 04:27:55;;;;;;;9.07;8.87;;;20.30;47.00;;;;;;5075430;28;20923;-64
2023/03/07 04:30:22;;;;;;;9.13;8.93;;;20.30;47.10;;;;;;5075074;28;20454;-64
2023/03/07 04:32:49;;;;;;;9.27;9.07;;;20.30;47.00;;;;;;5075566;28;20506;-64
2023/03/07 04:35:16;;;;;;;9.03;8.83;;;20.30;47.00;;;;;;5075240;28;20479;-64
2023/03/07 04:37:43;;;;;;;9.90;9.70;;;20.30;47.60;;;;;;5074666;28;20536;-63
2023/03/07 04:40:11;;;;;;;8.83;8.63;;;20.30;47.00;;;;;;5075590;28;20482;-63
2023/03/07 04:42:38;;;;;;;9.67;9.37;;;20.30;46.90;;;;;;5075697;28;20471;-63
2023/03/07 04:45:08;;;;;;;9.53;9.23;;;20.40;46.90;;;;;;5078183;28;20878;-63
2023/03/07 04:47:35;;;;;;;9.73;9.43;;;20.40;46.80;;;;;;5075572;28;20482;-63
2023/03/07 04:50:02;;;;;;;9.83;9.50;;;20.40;46.80;;;;;;5075650;28;20900;-64
2023/03/07 04:52:29;;;;;;;9.27;9.07;;;20.40;46.80;;;;;;5075094;28;20447;-64
2023/03/07 04:54:56;;;;;;;9.70;9.40;;;20.40;46.80;;;;;;5075339;28;20486;-63
2023/03/07 04:57:22;;;;;;;9.20;9.00;;;20.40;46.80;;;;;;5064116;28;20481;-64
2023/03/07 04:59:49;;;;;;;8.93;8.73;;;20.50;47.00;;;;;;5055726;28;20480;-64
2023/03/07 05:02:18;;;;;;;9.80;9.40;;;20.40;47.00;;;;;;5054934;28;20467;-64
2023/03/07 05:04:45;;;;;;;8.93;8.73;;;20.50;47.10;;;;;;5055015;28;20464;-64
2023/03/07 05:07:11;;;;;;;9.20;9.00;;;20.50;47.10;;;;;;5054407;28;20832;-64
2023/03/07 05:09:38;;;;;;;9.23;9.03;;;20.50;47.10;;;;;;5054623;28;20483;-64
2023/03/07 05:12:06;;;;;;;10.83;10.43;;;20.60;47.10;;;;;;5054692;28;20464;-64
2023/03/07 05:14:33;;;;;;;9.40;9.17;;;20.60;47.10;;;;;;5054897;28;20503;-64
2023/03/07 05:16:59;;;;;;;9.70;9.50;;;20.60;47.10;;;;;;5054811;28;20521;-63
2023/03/07 05:19:29;;;;;;;9.27;9.07;;;20.60;47.10;;;;;;5054239;28;20534;-64
2023/03/07 05:21:56;;;;;;;10.07;9.80;;;20.60;47.10;;;;;;5054328;28;20501;-64
2023/03/07 05:24:23;;;;;;;9.77;9.47;;;20.60;47.00;;;;;;5054693;28;20540;-64
2023/03/07 05:26:50;;;;;;;9.80;9.50;;;20.60;47.10;;;;;;5054425;28;20468;-64
2023/03/07 05:29:16;;;;;;;9.80;9.50;;;20.60;47.00;;;;;;5054238;28;20472;-63
2023/03/07 05:31:43;;;;;;;10.03;9.73;;;20.70;47.00;;;;;;5054588;28;20487;-63
2023/03/07 05:34:10;;;;;;;9.43;9.13;;;20.70;47.00;;;;;;5054832;28;20959;-63
2023/03/07 05:36:39;;;;;;;10.37;10.07;;;20.70;47.00;;;;;;5054453;28;20495;-64
2023/03/07 05:39:05;;;;;;;10.50;10.10;;;20.70;47.00;;;;;;5054164;28;20480;-64
2023/03/07 05:41:32;;;;;;;10.70;10.40;;;20.70;46.90;;;;;;5054485;28;20916;-64
2023/03/07 05:43:59;;;;;;;9.30;9.10;;;20.70;47.00;;;;;;5054219;28;20995;-64
2023/03/07 05:46:26;;;;;;;9.60;9.40;;;20.70;47.00;;;;;;5055450;28;20447;-64
2023/03/07 05:48:54;;;;;;;10.00;9.43;;;20.80;47.10;;;;;;5074382;28;20883;-63
2023/03/07 05:51:21;;;;;;;9.70;9.40;;;20.80;47.10;;;;;;5073925;28;20450;-64
2023/03/07 05:53:49;;;;;;;10.60;10.20;;;20.80;47.30;;;;;;5074467;28;20949;-64
2023/03/07 05:56:16;;;;;;;10.60;10.10;;;20.80;47.70;;;;;;5073886;28;20504;-64
2023/03/07 05:58:43;;;;;;;11.63;11.13;;;20.90;48.30;;;;;;5053882;28;20545;-64
2023/03/07 06:01:10;;;;;;;10.90;10.40;;;20.90;48.60;;;;;;5053961;28;20476;-64
2023/03/07 06:03:37;;;;;;;11.87;11.37;;;20.90;49.20;;;;;;5055016;28;20488;-63
2023/03/07 06:06:04;;;;;;;11.77;11.17;;;20.90;50.50;;;;;;5059397;28;20444;-64
2023/03/07 06:08:31;;;;;;;12.10;11.30;;;21.00;50.80;;;;;;5055443;28;21002;-64
2023/03/07 06:11:00;;;;;;;13.90;13.10;;;21.10;51.00;;;;;;5053498;28;20452;-64
2023/03/07 06:13:26;;;;;;;12.53;11.83;;;21.10;50.70;;;;;;5052149;28;20522;-64
2023/03/07 06:15:55;;;;;;;12.00;11.03;;;21.10;50.20;;;;;;5051925;28;20468;-65
2023/03/07 06:18:23;;;;;;;12.00;11.40;;;21.20;49.80;;;;;;5055255;28;20916;-63
2023/03/07 06:20:58;;;;;;;12.83;12.07;;;21.20;49.50;;;;;;5055966;28;20852;-64
2023/03/07 06:23:25;;;;;;;12.27;11.43;;;21.30;49.20;;;;;;5055855;28;20563;-64
2023/03/07 06:25:52;;;;;;;13.47;12.53;;;21.30;48.90;;;;;;5055933;28;20448;-64
2023/03/07 06:28:21;;;;;;;12.90;11.67;;;21.40;48.70;;;;;;5055436;28;20514;-65
2023/03/07 06:30:48;;;;;;;12.33;11.07;;;21.40;48.50;;;;;;5056103;28;20750;-64
2023/03/07 06:33:15;;;;;;;10.63;10.23;;;21.50;48.30;;;;;;5055763;28;20819;-64
2023/03/07 06:35:44;;;;;;;11.00;10.60;;;21.50;48.00;;;;;;5056606;28;20513;-65
2023/03/07 06:38:13;;;;;;;11.77;11.17;;;21.50;47.80;;;;;;5056159;28;20449;-64
2023/03/07 06:40:40;;;;;;;11.63;11.10;;;21.50;47.70;;;;;;5056153;28;20450;-64
2023/03/07 06:43:07;;;;;;;11.97;11.17;;;21.50;47.50;;;;;;5055526;28;20504;-64
2023/03/07 06:45:36;;;;;;;12.80;11.60;;;21.50;47.40;;;;;;5056313;28;20440;-64
2023/03/07 06:48:04;;;;;;;11.70;11.13;;;21.60;47.30;;;;;;5055803;28;20461;-63
2023/03/07 06:50:31;;;;;;;11.07;10.57;;;21.60;47.10;;;;;;5056031;28;20452;-64
2023/03/07 06:52:58;;;;;;;11.07;10.67;;;21.60;46.90;;;;;;5055401;28;20616;-64
2023/03/07 06:55:25;;;;;;;12.80;11.97;;;21.60;46.80;;;;;;5055736;28;20456;-64
2023/03/07 06:57:52;;;;;;;10.70;10.23;;;21.70;46.80;;;;;;5055281;28;20506;-64
2023/03/07 07:00:21;;;;;;;10.77;10.17;;;21.70;46.70;;;;;;5055361;28;20480;-63
2023/03/07 07:02:49;;;;;;;10.00;9.70;;;21.70;46.50;;;;;;5055381;28;20854;-64
2023/03/07 07:05:17;;;;;;;11.33;10.93;;;21.80;46.40;;;;;;5054999;28;20448;-65
2023/03/07 07:07:43;;;;;;;11.10;10.60;;;21.80;46.30;;;;;;5055079;28;20444;-64
2023/03/07 07:10:12;;;;;;;11.33;10.83;;;21.70;46.20;;;;;;5054910;28;20835;-64
2023/03/07 07:12:39;;;;;;;10.03;9.83;;;21.80;46.20;;;;;;5055156;28;20506;-63
2023/03/07 07:15:07;;;;;;;11.53;10.80;;;21.80;46.00;;;;;;5055505;28;20931;-64
2023/03/07 07:17:35;;;;;;;11.37;10.43;;;21.80;46.00;;;;;;5054943;28;20547;-63
2023/03/07 07:20:05;;;;;;;10.30;10.00;;;21.80;45.90;;;;;;5055658;28;20901;-63
2023/03/07 07:22:32;;;;;;;10.87;10.50;;;21.80;45.80;;;;;;5054701;28;20535;-64
2023/03/07 07:24:59;;;;;;;11.00;10.50;;;21.80;45.70;;;;;;5055582;28;20533;-65
2023/03/07 07:27:27;;;;;;;10.30;9.90;;;21.80;45.60;;;;;;5055322;28;20510;-63
2023/03/07 07:29:54;;;;;;;11.00;10.50;;;21.90;45.60;;;;;;5058780;28;20440;-64
2023/03/07 07:32:21;;;;;;;12.60;12.10;;;21.90;45.50;;;;;;5059214;28;20525;-64
2023/03/07 07:34:48;;;;;;;10.50;10.00;;;21.90;45.50;;;;;;5058999;28;20523;-62
2023/03/07 07:37:16;;;;;;;10.47;10.17;;;21.90;45.40;;;;;;5059169;28;20819;-64
2023/03/07 07:39:44;;;;;;;10.50;10.20;;;21.90;45.30;;;;;;5059210;28;20484;-64
2023/03/07 07:42:11;;;;;;;9.70;9.40;;;22.00;45.30;;;;;;5058494;28;20475;-64
2023/03/07 07:44:38;;;;;;;10.07;9.77;;;21.90;45.20;;;;;;5058165;28;20898;-64
2023/03/07 07:47:05;;;;;;;10.30;10.00;;;21.90;45.20;;;;;;5058833;28;20494;-64
2023/03/07 07:49:32;;;;;;;10.43;10.10;;;22.00;45.10;;;;;;5058887;28;20474;-63
2023/03/07 07:51:59;;;;;;;10.83;10.53;;;22.00;45.10;;;;;;5058899;28;20800;-64
2023/03/07 07:54:27;;;;;;;10.80;10.40;;;22.00;45.00;;;;;;5058786;28;20979;-64
2023/03/07 07:56:56;;;;;;;10.60;10.30;;;22.00;45.00;;;;;;5058847;28;20939;-65
2023/03/07 07:59:23;;;;;;;10.10;9.80;;;22.00;44.90;;;;;;5059033;28;20483;-64
2023/03/07 08:01:50;;;;;;;10.40;10.10;;;22.00;44.90;;;;;;5058602;28;20712;-64
2023/03/07 08:04:17;;;;;;;10.47;10.17;;;22.00;44.80;;;;;;5058217;28;20500;-64
2023/03/07 08:06:44;;;;;;;10.27;9.90;;;22.00;44.80;;;;;;5058980;28;20448;-64
2023/03/07 08:09:11;;;;;;;11.03;10.73;;;22.10;44.80;;;;;;5058539;28;21009;-64
2023/03/07 08:11:39;;;;;;;10.50;10.20;;;22.10;44.80;;;;;;5058944;28;20444;-64
2023/03/07 08:14:06;;;;;;;10.33;10.03;;;22.00;44.60;;;;;;5059052;28;20464;-64
2023/03/07 08:16:33;;;;;;;9.97;9.70;;;22.10;44.70;;;;;;5058417;28;20456;-63
2023/03/07 08:19:00;;;;;;;11.13;10.73;;;22.10;44.60;;;;;;5059031;28;20540;-64
2023/03/07 08:21:28;;;;;;;10.90;10.40;;;22.10;44.50;;;;;;5064470;28;20452;-64
2023/03/07 08:23:55;;;;;;;10.47;10.10;;;22.10;44.40;;;;;;5070060;28;20464;-64
2023/03/07 08:26:22;;;;;;;10.10;9.80;;;22.10;44.40;;;;;;5070801;28;20455;-64
2023/03/07 08:28:51;;;;;;;10.10;9.90;;;22.10;44.40;;;;;;5070873;28;20440;-64
2023/03/07 08:31:22;;;;;;;10.00;9.70;;;22.10;44.40;;;;;;5070930;28;20448;-63
2023/03/07 08:33:50;;;;;;;10.70;10.40;;;22.10;44.30;;;;;;5071709;28;20537;-64
2023/03/07 08:36:17;;;;;;;10.17;9.87;;;22.20;44.30;;;;;;5067995;28;20501;-64
2023/03/07 08:38:44;;;;;;;11.17;10.87;;;22.20;44.30;;;;;;5058163;28;20444;-65
2023/03/07 08:41:11;;;;;;;10.70;10.40;;;22.20;44.20;;;;;;5059188;28;20445;-64
2023/03/07 08:43:39;;;;;;;10.80;10.50;;;22.20;44.20;;;;;;5059068;28;21060;-64
2023/03/07 08:46:07;;;;;;;10.90;10.50;;;22.20;44.20;;;;;;5059281;28;20450;-64
2023/03/07 08:48:35;;;;;;;10.63;10.33;;;22.20;44.10;;;;;;5059928;28;20440;-65
2023/03/07 08:51:07;;;;;;;11.20;10.90;;;22.20;44.10;;;;;;5059914;28;20472;-64
2023/03/07 08:53:34;;;;;;;10.70;10.30;;;22.20;44.60;;;;;;5058668;28;20460;-63
2023/03/07 08:56:05;;;;;;;11.57;11.17;;;22.20;44.10;;;;;;5059109;28;20448;-64
2023/03/07 08:58:32;;;;;;;10.50;10.20;;;22.20;44.00;;;;;;5058489;28;20448;-63
2023/03/07 09:00:59;;;;;;;10.30;10.00;;;22.20;44.00;;;;;;5058398;28;20484;-64
2023/03/07 09:03:27;;;;;;;10.67;10.37;;;22.30;44.00;;;;;;5059657;28;20464;-64
2023/03/07 09:05:54;;;;;;;9.67;9.47;;;22.30;43.90;;;;;;5061674;28;20809;-64
2023/03/07 09:08:21;;;;;;;9.80;9.60;;;22.30;43.90;;;;;;5062482;28;20510;-64
2023/03/07 09:10:48;;;;;;;11.00;10.50;;;22.30;43.90;;;;;;5062214;28;20440;-63
2023/03/07 09:13:15;;;;;;;9.60;9.40;;;22.30;43.80;;;;;;5061661;28;20496;-64
2023/03/07 09:15:42;;;;;;;10.40;10.10;;;22.30;43.80;;;;;;5062304;28;20453;-64
2023/03/07 09:18:10;;;;;;;11.73;11.43;;;22.30;43.70;;;;;;5062196;28;20443;-64
2023/03/07 09:20:39;;;;;;;10.60;10.30;;;22.30;43.60;;;;;;5059752;28;20479;-63
2023/03/07 09:23:06;;;;;;;10.67;10.37;;;22.30;43.60;;;;;;5057923;28;20468;-64
2023/03/07 09:25:33;;;;;;;9.07;8.87;;;22.30;43.60;;;;;;5058669;28;20448;-64
2023/03/07 09:28:00;;;;;;;10.17;9.90;;;22.30;43.50;;;;;;5058389;28;20478;-64
2023/03/07 09:30:27;;;;;;;9.90;9.50;;;22.30;43.50;;;;;;5058710;28;20448;-64
2023/03/07 09:32:54;;;;;;;10.13;9.93;;;22.30;43.50;;;;;;5057638;28;20522;-64
2023/03/07 09:35:21;;;;;;;9.90;9.67;;;22.30;43.50;;;;;;5057446;28;20448;-64
2023/03/07 09:37:50;;;;;;;9.63;9.43;;;22.30;43.40;;;;;;5057378;28;20808;-65
2023/03/07 09:40:22;;;;;;;9.73;9.33;;;22.30;43.40;;;;;;5057305;28;20480;-64
2023/03/07 09:42:57;;;;;;;10.30;10.10;;;22.30;43.40;;;;;;5057473;28;20479;-63
2023/03/07 09:45:35;;;;;;;10.00;9.80;;;22.30;43.40;;;;;;5058483;28;20448;-64
2023/03/07 09:48:18;;;;;;;9.60;9.30;;;22.30;43.40;;;;;;5057844;28;20478;-65
2023/03/07 09:50:52;;;;;;;10.20;9.97;;;22.30;43.40;;;;;;5057218;28;20448;-64
2023/03/07 09:53:28;;;;;;;9.77;9.47;;;22.40;43.40;;;;;;5057065;28;20468;-64
2023/03/07 09:55:58;;;;;;;10.43;10.13;;;22.40;43.50;;;;;;5057252;28;20478;-64
2023/03/07 09:58:27;;;;;;;9.93;9.63;;;22.30;43.40;;;;;;5056835;28;20458;-64
2023/03/07 10:00:58;;;;;;;9.80;9.50;;;22.40;43.40;;;;;;5057488;28;20522;-65
2023/03/07 10:03:33;;;;;;;9.70;9.50;;;22.40;43.40;;;;;;5057630;28;20476;-65
2023/03/07 10:06:05;;;;;;;9.83;9.63;;;22.40;43.40;;;;;;5055888;28;20428;-64
2023/03/07 10:08:34;;;;;;;10.30;9.40;;;22.40;43.40;;;;;;5056065;28;20987;-64
2023/03/07 10:11:13;;;;;;;9.67;9.37;;;22.40;43.30;;;;;;5054850;28;20505;-65
2023/03/07 10:13:51;;;;;;;10.10;9.90;;;22.40;43.30;;;;;;5054604;28;20472;-64
2023/03/07 10:16:26;;;;;;;9.40;9.20;;;22.30;43.20;;;;;;5055920;28;20440;-63
2023/03/07 10:19:10;;;;;;;10.03;9.83;;;22.40;43.40;;;;;;5056016;28;20483;-64
2023/03/07 10:21:44;;;;;;;9.87;9.57;;;22.40;43.40;;;;;;5055171;28;20440;-65
2023/03/07 10:24:36;;;;;;;10.47;10.17;;;22.40;43.40;;;;;;5055892;28;20495;-65
2023/03/07 10:27:06;;;;;;;9.80;9.60;;;22.40;43.30;;;;;;5056512;28;20440;-64
2023/03/07 10:29:39;;;;;;;9.57;9.37;;;22.40;43.30;;;;;;5055195;28;20471;-64
2023/03/07 10:32:21;;;;;;;9.90;9.70;;;22.40;43.30;;;;;;5054823;28;20505;-64
2023/03/07 10:34:55;;;;;;;9.80;9.60;;;22.40;43.30;;;;;;5054992;28;20889;-64
2023/03/07 10:37:29;;;;;;;9.53;9.33;;;22.40;43.30;;;;;;5056184;28;20444;-64
2023/03/07 10:40:00;;;;;;;9.33;9.00;;;22.40;43.20;;;;;;5055779;28;21034;-64
2023/03/07 10:42:33;;;;;;;8.70;8.50;;;22.40;43.20;;;;;;5055386;28;20448;-65
2023/03/07 10:45:01;;;;;;;9.00;8.80;;;22.40;43.20;;;;;;5055875;28;20448;-65
2023/03/07 10:47:29;;;;;;;9.00;8.80;;;22.40;43.20;;;;;;5055323;28;20451;-64
2023/03/07 10:50:02;;;;;;;9.30;9.10;;;22.40;43.30;;;;;;5055374;28;20428;-65
2023/03/07 10:52:34;;;;;;;9.00;8.80;;;22.40;43.20;;;;;;5055891;28;20440;-65
2023/03/07 10:55:32;;;;;;;9.43;9.23;;;22.40;43.20;;;;;;5056125;28;20464;-64
2023/03/07 10:58:18;;;;;;;9.47;9.27;;;22.40;43.20;;;;;;5059706;28;20444;-65
2023/03/07 11:00:57;;;;;;;9.40;9.20;;;22.40;43.20;;;;;;5060446;28;20480;-65
2023/03/07 11:03:28;;;;;;;9.00;8.80;;;22.40;43.20;;;;;;5060522;28;20467;-65
2023/03/07 11:05:55;;;;;;;9.80;9.60;;;22.40;43.30;;;;;;5062504;28;20453;-65
2023/03/07 11:08:29;;;;;;;9.90;9.70;;;22.40;43.20;;;;;;5063609;28;20880;-65
2023/03/07 11:10:57;;;;;;;10.20;10.00;;;22.40;43.20;;;;;;5064187;28;20451;-65
2023/03/07 11:13:24;;;;;;;9.47;9.27;;;22.40;43.20;;;;;;5058898;28;20537;-65
2023/03/07 11:15:52;;;;;;;9.80;9.60;;;22.40;43.70;;;;;;5055392;28;20472;-65
2023/03/07 11:18:30;;;;;;;9.77;9.57;;;22.40;43.20;;;;;;5056973;28;20448;-65
2023/03/07 11:20:58;;;;;;;10.33;10.13;;;22.40;43.20;;;;;;5055564;28;20633;-64
2023/03/07 11:23:26;;;;;;;9.60;9.40;;;22.40;43.20;;;;;;5057439;28;20531;-65
2023/03/07 11:25:55;;;;;;;10.03;9.83;;;22.40;43.20;;;;;;5059859;28;20509;-64
2023/03/07 11:28:30;;;;;;;9.90;9.70;;;22.40;43.20;;;;;;5057447;28;20444;-65
2023/03/07 11:31:13;;;;;;;9.57;9.37;;;22.40;43.20;;;;;;5056902;28;20466;-65
2023/03/07 11:33:48;;;;;;;9.87;9.63;;;22.40;43.20;;;;;;5055912;28;20468;-64
2023/03/07 11:36:17;;;;;;;10.30;10.00;;;22.40;43.20;;;;;;5056393;28;20484;-65
2023/03/07 11:38:56;;;;;;;9.20;9.00;;;22.40;43.20;;;;;;5059029;28;20452;-64
2023/03/07 11:41:27;;;;;;;9.83;9.63;;;22.40;43.20;;;;;;5059173;28;20510;-65
2023/03/07 11:44:04;;;;;;;9.63;9.43;;;22.40;43.20;;;;;;5062234;28;20510;-65
2023/03/07 11:46:43;;;;;;;9.23;9.03;;;22.40;43.20;;;;;;5061901;28;20531;-65
2023/03/07 11:49:28;;;;;;;9.50;9.30;;;22.40;43.20;;;;;;5061522;28;20451;-65
2023/03/07 11:52:07;;;;;;;9.80;9.60;;;22.40;43.30;;;;;;5062162;28;20460;-65
2023/03/07 11:54:41;;;;;;;9.37;9.17;;;22.40;43.20;;;;;;5058333;28;20796;-65
2023/03/07 11:57:18;;;;;;;9.20;9.00;;;22.40;43.30;;;;;;5057365;28;20517;-65
2023/03/07 12:00:17;;;;;;;9.23;9.03;;;22.40;43.30;;;;;;5057462;28;20501;-64
2023/03/07 12:03:04;;;;;;;9.30;9.10;;;22.40;43.30;;;;;;5055242;28;20452;-65
2023/03/07 12:05:40;;;;;;;9.90;9.70;;;22.40;43.30;;;;;;5056767;28;20820;-65
2023/03/07 12:08:49;;;;;;;8.90;8.70;;;22.40;43.30;;;;;;5056688;28;20471;-64
2023/03/07 12:11:29;;;;;;;9.50;9.30;;;22.40;43.30;;;;;;5045999;28;20455;-66
2023/03/07 12:14:06;;;;;;;8.97;8.77;;;22.40;43.30;;;;;;5056527;28;20468;-65
2023/03/07 12:16:45;;;;;;;9.10;8.90;;;22.40;43.40;;;;;;5059741;28;20935;-64
2023/03/07 12:19:50;;;;;;;8.90;8.70;;;22.40;43.40;;;;;;5060656;28;20472;-64
2023/03/07 12:22:26;;;;;;;8.90;8.70;;;22.40;43.30;;;;;;5056827;28;20466;-64
2023/03/07 12:25:18;;;;;;;8.80;8.60;;;22.50;43.40;;;;;;5062129;28;20535;-65
2023/03/07 12:27:50;;;;;;;8.80;8.60;;;22.50;43.40;;;;;;5059717;28;20501;-65
2023/03/07 12:30:21;;;;;;;8.50;8.30;;;22.50;43.40;;;;;;5059181;28;20801;-65
2023/03/07 12:32:50;;;;;;;8.70;8.50;;;22.50;43.40;;;;;;5062071;28;20501;-66
2023/03/07 12:35:27;;;;;;;8.80;8.60;;;22.50;43.40;;;;;;5062684;28;20448;-65
2023/03/07 12:38:01;;;;;;;9.10;8.80;;;22.50;43.40;;;;;;5063491;28;20475;-65
2023/03/07 12:40:35;;;;;;;9.30;9.10;;;22.50;43.40;;;;;;5062285;28;20484;-65
2023/03/07 12:43:14;;;;;;;9.30;9.10;;;22.50;43.40;;;;;;5060714;28;20479;-65
2023/03/07 12:45:45;;;;;;;8.53;8.33;;;22.50;43.40;;;;;;5058925;28;20448;-65
2023/03/07 12:48:22;;;;;;;8.90;8.70;;;22.50;43.30;;;;;;5062961;28;20440;-65
2023/03/07 12:50:56;;;;;;;8.87;8.57;;;22.50;43.40;;;;;;5063802;28;20436;-65
2023/03/07 12:53:33;;;;;;;8.40;8.23;;;22.50;43.40;;;;;;5064904;28;20464;-66
2023/03/07 12:56:05;;;;;;;9.20;9.00;;;22.50;43.40;;;;;;5064638;28;20494;-65